createdAt,value
2018-10-07T00:01:12.922Z,78.55
2018-10-07T00:03:41.856Z,78.11
2018-10-07T00:06:10.476Z,76.51
2018-10-07T00:08:40.861Z,76.41
2018-10-07T00:11:11.031Z,79.12
2018-10-07T00:13:40.292Z,79.48
2018-10-07T00:16:09.252Z,80.19
2018-10-07T00:18:38.280Z,80.52
2018-10-07T00:21:07.663Z,80.08
2018-10-07T00:23:37.085Z,80.05
2018-10-07T00:26:06.776Z,80.56
2018-10-07T00:28:35.574Z,80.54
2018-10-07T00:31:05.385Z,80.44
2018-10-07T00:33:34.668Z,81.17
2018-10-07T00:36:04.312Z,81.25
2018-10-07T00:38:33.356Z,79.68
2018-10-07T00:41:03.221Z,79.77
2018-10-07T00:43:32.873Z,79.67
2018-10-07T00:46:01.582Z,79.56
2018-10-07T00:48:30.465Z,79.04
2018-10-07T00:51:00.323Z,78.66
2018-10-07T00:53:29.003Z,78.54
2018-10-07T00:55:57.886Z,78.96
2018-10-07T00:58:28.173Z,78.40
2018-10-07T01:00:57.264Z,78.93
2018-10-07T01:03:27.093Z,79.10
2018-10-07T01:05:56.189Z,78.60
2018-10-07T01:08:25.737Z,78.23
2018-10-07T01:10:55.024Z,80.13
2018-10-07T01:13:24.833Z,80.85
2018-10-07T01:15:54.388Z,81.24
2018-10-07T01:18:23.934Z,81.82
2018-10-07T01:20:53.251Z,82.31
2018-10-07T01:23:22.447Z,81.41
2018-10-07T01:25:52.450Z,82.80
2018-10-07T01:28:22.602Z,80.90
2018-10-07T01:30:52.952Z,82.28
2018-10-07T01:33:22.036Z,84.13
2018-10-07T01:35:50.988Z,84.88
2018-10-07T01:38:20.440Z,84.21
2018-10-07T01:40:49.457Z,84.31
2018-10-07T01:43:18.959Z,84.95
2018-10-07T01:45:50.391Z,84.86
2018-10-07T01:48:19.640Z,84.96
2018-10-07T01:50:49.055Z,83.16
2018-10-07T01:53:18.577Z,82.04
2018-10-07T01:55:47.661Z,82.59
2018-10-07T01:58:17.920Z,83.04
2018-10-07T02:00:46.784Z,82.62
2018-10-07T02:03:16.152Z,82.52
2018-10-07T02:05:45.410Z,83.28
2018-10-07T02:08:14.676Z,83.38
2018-10-07T02:10:43.848Z,82.71
2018-10-07T02:13:13.556Z,81.55
2018-10-07T02:15:44.185Z,81.80
2018-10-07T02:18:14.303Z,83.56
2018-10-07T02:20:42.984Z,84.33
2018-10-07T02:23:12.488Z,84.23
2018-10-07T02:25:41.648Z,84.27
2018-10-07T02:28:10.716Z,83.45
2018-10-07T02:30:41.531Z,82.56
2018-10-07T02:33:11.001Z,82.89
2018-10-07T02:35:40.355Z,84.93
2018-10-07T02:38:09.333Z,84.89
2018-10-07T02:40:40.449Z,85.63
2018-10-07T02:43:10.429Z,85.27
2018-10-07T02:45:39.957Z,83.99
2018-10-07T02:48:09.747Z,82.76
2018-10-07T02:50:39.252Z,83.00
2018-10-07T02:53:10.048Z,83.63
2018-10-07T02:55:39.029Z,84.12
2018-10-07T02:58:07.994Z,84.07
2018-10-07T03:00:38.467Z,84.47
2018-10-07T03:03:08.564Z,84.14
2018-10-07T03:05:37.828Z,84.16
2018-10-07T03:08:08.143Z,84.87
2018-10-07T03:10:37.216Z,85.21
2018-10-07T03:13:06.912Z,85.78
2018-10-07T03:15:35.545Z,85.91
2018-10-07T03:18:04.981Z,85.99
2018-10-07T03:20:33.698Z,86.57
2018-10-07T03:23:03.041Z,88.30
2018-10-07T03:25:33.637Z,89.83
2018-10-07T03:28:03.766Z,91.24
2018-10-07T03:30:34.203Z,90.91
2018-10-07T03:33:03.578Z,91.16
2018-10-07T03:35:32.379Z,91.30
2018-10-07T03:38:02.232Z,91.44
2018-10-07T03:40:32.049Z,91.39
2018-10-07T03:43:01.866Z,91.33
2018-10-07T03:45:31.539Z,90.72
2018-10-07T03:48:02.173Z,90.35
2018-10-07T03:50:31.183Z,92.03
2018-10-07T03:53:00.345Z,91.99
2018-10-07T03:55:29.464Z,91.34
2018-10-07T03:57:58.917Z,90.62
2018-10-07T04:00:28.173Z,90.38
2018-10-07T04:02:58.742Z,90.50
2018-10-07T04:05:27.838Z,91.88
2018-10-07T04:07:56.624Z,92.61
2018-10-07T04:10:26.654Z,91.90
2018-10-07T04:12:56.340Z,91.96
2018-10-07T04:15:25.428Z,92.34
2018-10-07T04:17:54.904Z,92.04
2018-10-07T04:20:25.069Z,92.03
2018-10-07T04:22:53.915Z,91.61
2018-10-07T04:25:22.709Z,91.50
2018-10-07T04:27:52.229Z,91.12
2018-10-07T04:30:21.639Z,90.93
2018-10-07T04:32:50.888Z,90.68
2018-10-07T04:35:20.516Z,90.61
2018-10-07T04:37:50.748Z,90.53
2018-10-07T04:40:19.456Z,90.07
2018-10-07T04:42:50.542Z,90.45
2018-10-07T04:45:19.436Z,90.80
2018-10-07T04:47:48.744Z,91.87
2018-10-07T04:50:18.621Z,91.70
2018-10-07T04:52:47.842Z,92.08
2018-10-07T04:55:17.414Z,91.45
2018-10-07T04:57:46.732Z,91.33
2018-10-07T05:00:16.984Z,91.62
2018-10-07T05:02:47.302Z,91.27
2018-10-07T05:05:16.513Z,90.88
2018-10-07T05:07:45.964Z,90.58
2018-10-07T05:10:57.321Z,90.54
2018-10-07T05:13:27.447Z,90.14
2018-10-07T05:16:00.104Z,89.42
2018-10-07T05:18:29.762Z,89.54
2018-10-07T05:21:00.294Z,90.03
2018-10-07T05:23:29.127Z,89.75
2018-10-07T05:25:58.100Z,89.79
2018-10-07T05:28:26.928Z,89.70
2018-10-07T05:30:56.298Z,89.58
2018-10-07T05:33:25.593Z,89.51
2018-10-07T05:35:55.907Z,89.75
2018-10-07T05:38:25.388Z,89.34
2018-10-07T05:40:54.535Z,88.95
2018-10-07T05:43:23.000Z,89.21
2018-10-07T05:45:51.966Z,88.75
2018-10-07T05:48:20.453Z,88.81
2018-10-07T05:50:50.382Z,88.64
2018-10-07T05:53:20.471Z,89.09
2018-10-07T05:55:50.131Z,89.13
2018-10-07T05:58:18.748Z,89.17
2018-10-07T06:00:47.698Z,88.89
2018-10-07T06:05:24.128Z,89.20
2018-10-07T06:07:53.271Z,89.06
2018-10-07T06:10:23.189Z,88.96
2018-10-07T06:12:52.993Z,88.72
2018-10-07T06:15:39.889Z,88.74
2018-10-07T06:18:08.974Z,88.12
2018-10-07T06:20:37.867Z,88.05
2018-10-07T06:23:06.809Z,87.52
2018-10-07T06:25:35.928Z,87.11
2018-10-07T06:28:05.517Z,86.87
2018-10-07T06:30:34.297Z,87.45
2018-10-07T06:33:02.762Z,87.53
2018-10-07T06:35:33.131Z,87.14
2018-10-07T06:38:02.316Z,87.07
2018-10-07T06:40:31.096Z,86.98
2018-10-07T06:43:00.227Z,86.70
2018-10-07T06:45:29.169Z,86.28
2018-10-07T06:47:58.457Z,86.09
2018-10-07T06:50:27.962Z,85.23
2018-10-07T06:52:57.116Z,84.93
2018-10-07T06:55:25.593Z,84.55
2018-10-07T06:57:54.295Z,84.57
2018-10-07T07:00:23.133Z,83.55
2018-10-07T07:02:51.661Z,83.91
2018-10-07T07:05:20.208Z,83.28
2018-10-07T07:07:49.577Z,84.02
2018-10-07T07:10:18.304Z,84.01
2018-10-07T07:12:46.736Z,84.70
2018-10-07T07:15:15.825Z,84.33
2018-10-07T07:17:45.385Z,84.25
2018-10-07T07:20:14.627Z,83.65
2018-10-07T07:22:43.819Z,83.77
2018-10-07T07:25:13.254Z,83.99
2018-10-07T07:27:42.657Z,84.01
2018-10-07T07:30:11.735Z,84.25
2018-10-07T07:32:40.220Z,84.22
2018-10-07T07:35:09.529Z,84.32
2018-10-07T07:37:38.559Z,84.39
2018-10-07T07:40:07.949Z,84.70
2018-10-07T07:42:36.819Z,84.63
2018-10-07T07:45:06.591Z,84.39
2018-10-07T07:47:35.392Z,84.69
2018-10-07T07:50:05.021Z,84.64
2018-10-07T07:52:35.419Z,84.62
2018-10-07T07:55:04.867Z,84.39
2018-10-07T07:57:35.122Z,84.88
2018-10-07T08:00:05.608Z,84.77
2018-10-07T08:02:35.261Z,84.76
2018-10-07T08:05:06.520Z,85.37
2018-10-07T08:07:35.983Z,84.66
2018-10-07T08:10:06.250Z,84.53
2018-10-07T08:12:35.460Z,85.04
2018-10-07T08:15:05.089Z,85.02
2018-10-07T08:17:35.844Z,84.89
2018-10-07T08:20:04.925Z,84.39
2018-10-07T08:22:34.115Z,84.63
2018-10-07T08:25:03.417Z,84.18
2018-10-07T08:27:32.777Z,84.52
2018-10-07T08:30:03.366Z,83.86
2018-10-07T08:32:32.338Z,82.91
2018-10-07T08:35:01.549Z,83.24
2018-10-07T08:37:32.267Z,82.70
2018-10-07T08:40:01.562Z,82.67
2018-10-07T08:42:30.633Z,82.55
2018-10-07T08:45:02.318Z,83.30
2018-10-07T08:47:31.262Z,83.74
2018-10-07T08:50:00.479Z,84.09
2018-10-07T08:52:30.652Z,83.82
2018-10-07T08:55:00.102Z,83.71
2018-10-07T08:57:29.533Z,83.39
2018-10-07T08:59:59.112Z,84.00
2018-10-07T09:02:28.411Z,84.34
2018-10-07T09:04:59.251Z,85.68
2018-10-07T09:07:28.625Z,86.17
2018-10-07T09:09:59.110Z,86.94
2018-10-07T09:12:28.238Z,86.71
2018-10-07T09:14:58.505Z,87.09
2018-10-07T09:17:29.668Z,87.60
2018-10-07T09:19:59.605Z,87.49
2018-10-07T09:22:28.173Z,87.55
2018-10-07T09:24:57.323Z,86.78
2018-10-07T09:27:26.245Z,86.94
2018-10-07T09:29:56.752Z,86.12
2018-10-07T09:32:27.579Z,85.24
2018-10-07T09:34:56.567Z,84.94
2018-10-07T09:37:26.225Z,83.39
2018-10-07T09:39:55.530Z,83.05
2018-10-07T09:42:25.124Z,82.50
2018-10-07T09:44:54.676Z,82.32
2018-10-07T09:47:24.305Z,82.24
2018-10-07T09:49:53.561Z,81.63
2018-10-07T09:52:24.585Z,81.79
2018-10-07T09:54:53.000Z,81.52
2018-10-07T09:57:22.028Z,80.98
2018-10-07T09:59:51.829Z,80.61
2018-10-07T10:02:21.806Z,80.74
2018-10-07T10:04:50.623Z,81.05
2018-10-07T10:07:21.328Z,80.94
2018-10-07T10:09:51.179Z,80.53
2018-10-07T10:12:20.030Z,79.61
2018-10-07T10:14:48.809Z,79.81
2018-10-07T10:17:20.320Z,80.10
2018-10-07T10:20:02.458Z,79.87
2018-10-07T10:24:47.921Z,80.16
2018-10-07T10:27:50.493Z,80.34
2018-10-07T10:32:32.471Z,80.03
2018-10-07T10:35:12.546Z,82.81
2018-10-07T10:38:20.788Z,84.83
2018-10-07T10:40:54.835Z,86.15
2018-10-07T10:43:42.740Z,86.28
2018-10-07T10:46:23.247Z,85.61
2018-10-07T10:49:05.752Z,86.13
2018-10-07T10:51:43.391Z,86.21
2018-10-07T10:54:18.821Z,85.96
2018-10-07T10:56:53.998Z,85.54
2018-10-07T11:00:31.674Z,84.28
2018-10-07T11:05:13.200Z,84.13
2018-10-07T11:08:55.374Z,82.64
2018-10-07T11:11:37.524Z,80.80
2018-10-07T11:15:18.851Z,78.46
2018-10-07T11:20:09.532Z,78.88
2018-10-07T11:22:45.960Z,78.36
2018-10-07T11:27:30.368Z,78.78
2018-10-07T11:30:07.757Z,78.21
2018-10-07T11:32:44.963Z,78.61
2018-10-07T11:35:23.160Z,78.68
2018-10-07T11:38:08.485Z,78.88
2018-10-07T11:40:48.340Z,78.33
2018-10-07T11:43:21.613Z,78.60
2018-10-07T11:45:59.876Z,78.07
2018-10-07T11:48:54.681Z,78.75
2018-10-07T11:51:41.568Z,78.30
2018-10-07T11:54:11.607Z,78.60
2018-10-07T11:56:40.645Z,79.20
2018-10-07T11:59:10.013Z,79.40
2018-10-07T12:01:39.029Z,79.38
2018-10-07T12:04:08.386Z,79.02
2018-10-07T12:06:38.457Z,78.54
2018-10-07T12:09:08.014Z,79.51
2018-10-07T12:11:37.266Z,78.68
2018-10-07T12:14:07.718Z,78.95
2018-10-07T12:16:36.184Z,78.69
2018-10-07T12:19:05.403Z,78.06
2018-10-07T12:21:34.506Z,77.77
2018-10-07T12:24:04.001Z,77.51
2018-10-07T12:26:32.822Z,77.52
2018-10-07T12:29:02.324Z,77.27
2018-10-07T12:31:32.025Z,78.06
2018-10-07T12:34:03.216Z,78.33
2018-10-07T12:36:34.277Z,77.47
2018-10-07T12:39:02.752Z,77.90
2018-10-07T12:41:31.825Z,78.13
2018-10-07T12:44:01.859Z,77.86
2018-10-07T12:46:31.206Z,78.42
2018-10-07T12:49:00.443Z,78.76
2018-10-07T12:51:30.055Z,78.25
2018-10-07T12:53:58.566Z,77.96
2018-10-07T12:56:27.340Z,77.97
2018-10-07T12:58:56.408Z,77.73
2018-10-07T13:01:25.728Z,78.14
2018-10-07T13:03:56.954Z,78.15
2018-10-07T13:06:26.513Z,77.92
2018-10-07T13:08:55.382Z,77.69
2018-10-07T13:11:23.876Z,76.84
2018-10-07T13:13:53.596Z,76.99
2018-10-07T13:16:23.532Z,77.09
2018-10-07T13:18:52.449Z,77.44
2018-10-07T13:21:22.428Z,76.90
2018-10-07T13:23:52.981Z,76.85
2018-10-07T13:26:22.400Z,76.99
2018-10-07T13:28:51.881Z,77.16
2018-10-07T13:31:21.717Z,76.54
2018-10-07T13:33:51.222Z,76.50
2018-10-07T13:36:20.474Z,75.89
2018-10-07T13:38:49.581Z,75.14
2018-10-07T13:41:20.545Z,75.02
2018-10-07T13:43:49.981Z,74.63
2018-10-07T13:46:19.081Z,74.51
2018-10-07T13:48:49.455Z,74.26
2018-10-07T13:51:19.576Z,74.16
2018-10-07T13:53:50.215Z,73.56
2018-10-07T13:56:20.265Z,73.08
2018-10-07T13:58:50.040Z,73.64
2018-10-07T14:01:19.373Z,72.72
2018-10-07T14:03:49.287Z,72.31
2018-10-07T14:06:19.448Z,72.54
2018-10-07T14:08:48.435Z,72.23
2018-10-07T14:11:18.240Z,72.35
2018-10-07T14:13:47.305Z,71.80
2018-10-07T14:16:16.773Z,72.48
2018-10-07T14:18:46.363Z,72.05
2018-10-07T14:21:15.255Z,71.58
2018-10-07T14:23:44.605Z,71.60
2018-10-07T14:26:15.297Z,71.42
2018-10-07T14:28:44.954Z,71.95
2018-10-07T14:31:14.295Z,70.91
2018-10-07T14:33:45.081Z,70.92
2018-10-07T14:36:14.160Z,69.79
2018-10-07T14:38:43.687Z,69.85
2018-10-07T14:41:12.968Z,69.30
2018-10-07T14:43:43.736Z,69.02
2018-10-07T14:46:14.237Z,67.72
2018-10-07T14:48:43.121Z,65.81
2018-10-07T14:51:13.259Z,65.73
2018-10-07T14:53:42.661Z,63.94
2018-10-07T14:56:11.981Z,62.64
2018-10-07T14:58:41.058Z,62.36
2018-10-07T15:01:09.985Z,60.61
2018-10-07T15:03:39.176Z,58.94
2018-10-07T15:06:08.300Z,57.32
2018-10-07T15:08:37.568Z,57.06
2018-10-07T15:11:07.429Z,56.44
2018-10-07T15:13:36.564Z,54.18
2018-10-07T15:16:06.257Z,53.17
2018-10-07T15:18:35.356Z,50.83
2018-10-07T15:21:04.236Z,49.60
2018-10-07T15:23:33.085Z,50.35
2018-10-07T15:26:02.854Z,51.60
2018-10-07T15:28:32.052Z,52.33
2018-10-07T15:31:01.767Z,50.06
2018-10-07T15:33:32.004Z,50.91
2018-10-07T15:36:00.781Z,52.31
2018-10-07T15:38:30.797Z,53.36
2018-10-07T15:41:00.504Z,55.52
2018-10-07T15:43:29.281Z,56.32
2018-10-07T15:45:59.609Z,56.87
2018-10-07T15:48:30.192Z,58.10
2018-10-07T15:50:59.441Z,60.59
2018-10-07T15:53:28.880Z,60.06
2018-10-07T15:55:57.957Z,62.11
2018-10-07T15:58:26.951Z,63.17
2018-10-07T16:00:56.468Z,63.64
2018-10-07T16:03:26.308Z,63.64
2018-10-07T16:05:55.641Z,62.96
2018-10-07T16:08:24.605Z,63.94
2018-10-07T16:10:53.457Z,63.50
2018-10-07T16:13:23.793Z,63.46
2018-10-07T16:15:52.988Z,63.78
2018-10-07T16:18:23.238Z,64.14
2018-10-07T16:20:52.792Z,63.50
2018-10-07T16:23:21.547Z,65.01
2018-10-07T16:25:51.241Z,64.97
2018-10-07T16:28:21.029Z,65.02
2018-10-07T16:30:50.581Z,65.94
2018-10-07T16:33:20.725Z,65.60
2018-10-07T16:35:50.329Z,64.90
2018-10-07T16:38:19.038Z,64.88
2018-10-07T16:40:47.588Z,64.67
2018-10-07T16:43:17.031Z,65.73
2018-10-07T16:45:46.140Z,65.84
2018-10-07T16:48:15.242Z,65.90
2018-10-07T16:50:44.369Z,65.46
2018-10-07T16:53:13.427Z,65.42
2018-10-07T16:55:43.803Z,65.55
2018-10-07T16:58:13.044Z,66.39
2018-10-07T17:00:43.157Z,66.22
2018-10-07T17:03:12.784Z,66.79
2018-10-07T17:05:41.973Z,66.89
2018-10-07T17:08:12.497Z,67.92
2018-10-07T17:10:41.742Z,67.88
2018-10-07T17:13:12.021Z,68.11
2018-10-07T17:15:41.695Z,68.71
2018-10-07T17:18:11.604Z,68.87
2018-10-07T17:20:41.770Z,69.33
2018-10-07T17:23:11.085Z,68.92
2018-10-07T17:25:42.137Z,68.33
2018-10-07T17:28:11.662Z,68.74
2018-10-07T17:30:42.701Z,69.43
2018-10-07T17:33:13.282Z,69.42
2018-10-07T17:35:42.445Z,69.75
2018-10-07T17:38:11.139Z,69.83
2018-10-07T17:40:40.884Z,70.08
2018-10-07T17:43:10.027Z,70.32
2018-10-07T17:45:38.928Z,69.53
2018-10-07T17:48:08.193Z,69.44
2018-10-07T17:50:37.698Z,69.29
2018-10-07T17:53:06.604Z,69.81
2018-10-07T17:55:35.789Z,69.46
2018-10-07T17:58:07.058Z,69.57
2018-10-07T18:00:35.841Z,69.61
2018-10-07T18:03:05.053Z,69.86
2018-10-07T18:05:34.901Z,69.65
2018-10-07T18:08:04.492Z,69.10
2018-10-07T18:10:34.649Z,69.42
2018-10-07T18:13:04.579Z,69.26
2018-10-07T18:15:33.392Z,68.81
2018-10-07T18:18:02.597Z,68.75
2018-10-07T18:20:31.789Z,68.58
2018-10-07T18:23:00.767Z,68.71
2018-10-07T18:25:30.867Z,68.78
2018-10-07T18:28:00.463Z,68.14
2018-10-07T18:30:29.537Z,68.52
2018-10-07T18:32:59.625Z,68.03
2018-10-07T18:35:29.309Z,68.05
2018-10-07T18:38:00.159Z,68.58
2018-10-07T18:40:29.605Z,68.29
2018-10-07T18:42:59.415Z,68.93
2018-10-07T18:45:29.655Z,69.38
2018-10-07T18:47:59.082Z,69.43
2018-10-07T18:50:28.205Z,70.58
2018-10-07T18:52:59.578Z,70.30
2018-10-07T18:55:29.560Z,71.22
2018-10-07T18:57:59.314Z,71.02
2018-10-07T19:00:28.133Z,71.35
2018-10-07T19:02:57.418Z,72.09
2018-10-07T19:05:25.910Z,72.22
2018-10-07T19:07:56.169Z,72.20
2018-10-07T19:10:25.859Z,72.19
2018-10-07T19:12:54.756Z,72.52
2018-10-07T19:15:23.689Z,72.73
2018-10-07T19:17:52.891Z,72.47
2018-10-07T19:20:22.275Z,73.23
2018-10-07T19:22:51.476Z,73.27
2018-10-07T19:25:20.262Z,73.15
2018-10-07T19:27:49.305Z,73.04
2018-10-07T19:30:18.655Z,73.17
2018-10-07T19:32:47.514Z,73.33
2018-10-07T19:35:16.796Z,73.33
2018-10-07T19:37:46.248Z,73.86
2018-10-07T19:40:15.803Z,74.03
2018-10-07T19:42:45.272Z,74.12
2018-10-07T19:45:13.797Z,75.00
2018-10-07T19:47:42.593Z,74.89
2018-10-07T19:50:12.154Z,75.70
2018-10-07T19:52:42.440Z,75.53
2018-10-07T19:55:11.144Z,75.61
2018-10-07T19:57:40.154Z,75.98
2018-10-07T20:00:09.193Z,75.38
2018-10-07T20:02:38.777Z,76.00
2018-10-07T20:05:07.902Z,75.75
2018-10-07T20:07:37.566Z,76.23
2018-10-07T20:10:07.364Z,76.29
2018-10-07T20:12:37.954Z,76.35
2018-10-07T20:15:06.973Z,76.01
2018-10-07T20:17:36.730Z,76.10
2018-10-07T20:20:05.440Z,77.05
2018-10-07T20:22:35.972Z,76.55
2018-10-07T20:25:05.376Z,76.75
2018-10-07T20:27:34.476Z,77.13
2018-10-07T20:30:04.931Z,77.49
2018-10-07T20:32:34.792Z,77.04
2018-10-07T20:35:05.281Z,77.49
2018-10-07T20:37:35.443Z,77.89
2018-10-07T20:40:05.536Z,77.61
2018-10-07T20:42:34.928Z,78.45
2018-10-07T20:45:04.305Z,78.30
2018-10-07T20:47:33.240Z,78.78
2018-10-07T20:50:01.925Z,78.86
2018-10-07T20:52:30.583Z,79.34
2018-10-07T20:55:00.406Z,79.20
2018-10-07T20:57:32.121Z,79.40
2018-10-07T21:00:02.376Z,79.16
2018-10-07T21:02:32.012Z,78.79
2018-10-07T21:05:01.666Z,79.39
2018-10-07T21:07:30.645Z,79.78
2018-10-07T21:10:00.081Z,79.41
2018-10-07T21:12:29.152Z,78.92
2018-10-07T21:14:59.368Z,78.83
2018-10-07T21:17:28.713Z,79.14
2018-10-07T21:19:57.904Z,79.02
2018-10-07T21:22:26.729Z,78.93
2018-10-07T21:24:55.850Z,78.91
2018-10-07T21:27:25.841Z,79.27
2018-10-07T21:29:54.723Z,79.03
2018-10-07T21:32:24.472Z,78.72
2018-10-07T21:34:54.131Z,78.92
2018-10-07T21:37:23.150Z,78.69
2018-10-07T21:39:52.773Z,78.79
2018-10-07T21:42:23.574Z,78.16
2018-10-07T21:44:54.533Z,78.48
2018-10-07T21:47:23.368Z,78.78
2018-10-07T21:49:52.057Z,78.47
2018-10-07T21:52:21.457Z,78.33
2018-10-07T21:54:50.693Z,78.60
2018-10-07T21:57:20.480Z,78.23
2018-10-07T21:59:49.364Z,77.96
2018-10-07T22:02:18.739Z,78.27
2018-10-07T22:04:48.089Z,78.04
2018-10-07T22:07:18.450Z,78.13
2018-10-07T22:09:48.473Z,78.05
2018-10-07T22:12:17.048Z,78.03
2018-10-07T22:14:46.976Z,78.15
2018-10-07T22:17:17.305Z,78.24
2018-10-07T22:19:46.802Z,77.92
2018-10-07T22:22:16.021Z,78.16
2018-10-07T22:24:45.530Z,77.56
2018-10-07T22:27:15.029Z,78.15
2018-10-07T22:29:45.048Z,77.84
2018-10-07T22:32:14.267Z,78.12
2018-10-07T22:34:44.088Z,78.58
2018-10-07T22:37:12.891Z,78.38
2018-10-07T22:39:42.892Z,78.96
2018-10-07T22:42:13.845Z,78.80
2018-10-07T22:44:44.033Z,79.10
2018-10-07T22:47:13.574Z,79.44
2018-10-07T22:49:42.904Z,79.44
2018-10-07T22:52:11.447Z,80.00
2018-10-07T22:54:40.147Z,79.81
2018-10-07T22:57:09.628Z,79.59
2018-10-07T22:59:38.868Z,79.52
2018-10-07T23:02:08.139Z,79.59
2018-10-07T23:04:38.049Z,80.06
2018-10-07T23:07:07.727Z,79.85
2018-10-07T23:09:37.722Z,80.30
2018-10-07T23:12:06.618Z,80.10
2018-10-07T23:14:35.073Z,79.92
2018-10-07T23:17:04.797Z,80.23
2018-10-07T23:19:33.676Z,79.99
2018-10-07T23:22:02.132Z,80.12
2018-10-07T23:24:31.091Z,80.75
2018-10-07T23:27:01.403Z,80.93
2018-10-07T23:29:30.972Z,81.33
2018-10-07T23:32:00.149Z,81.59
2018-10-07T23:34:29.342Z,81.86
2018-10-07T23:36:57.796Z,81.96
2018-10-07T23:39:26.517Z,81.87
2018-10-07T23:41:56.988Z,81.69
2018-10-07T23:44:25.973Z,81.79
2018-10-07T23:46:56.049Z,81.28
2018-10-07T23:49:25.029Z,82.13
2018-10-07T23:51:54.676Z,82.08
2018-10-07T23:54:24.088Z,82.62
2018-10-07T23:56:55.044Z,82.89
2018-10-07T23:59:23.729Z,82.74
